Time;durP1;ratioP1;P1;durP2;ratioP2;P2;SDS_P1;SDS_P2;PMS_P1;PMS_P2;Temp;Humidity;BMP_temperature;BMP_pressure;BME280_temperature;BME280_humidity;BME280_pressure;Samples;Min_cycle;Max_cycle;Signal;HPM_P1;HPM_P2
2023/10/28 00:01:46;;;;;;;;;;;;;;;21.08;29.25;96784.16;4962590;28;1176;-77
2023/10/28 00:04:12;;;;;;;;;;;;;;;20.73;29.79;96770.34;4995096;28;1061;-76
2023/10/28 00:06:39;;;;;;;;;;;;;;;20.53;30.20;96776.41;4946384;28;1063;-76
2023/10/28 00:09:05;;;;;;;;;;;;;;;20.71;29.97;96777.69;4978743;28;978;-77
2023/10/28 00:11:31;;;;;;;;;;;;;;;20.69;30.08;96781.00;4978640;28;982;-77
2023/10/28 00:13:57;;;;;;;;;;;;;;;20.76;29.79;96769.38;4978412;28;1903;-76
2023/10/28 00:16:22;;;;;;;;;;;;;;;20.88;29.56;96764.03;4978500;28;1065;-77
2023/10/28 00:18:49;;;;;;;;;;;;;;;20.72;29.86;96757.44;4978659;28;1123;-77
2023/10/28 00:21:17;;;;;;;;;;;;;;;20.95;29.53;96746.78;4962610;28;1201;-77
2023/10/28 00:23:43;;;;;;;;;;;;;;;20.72;30.01;96743.28;4962885;28;1206;-77
2023/10/28 00:26:10;;;;;;;;;;;;;;;20.94;29.84;96745.22;4994362;28;927;-77
2023/10/28 00:28:36;;;;;;;;;;;;;;;20.96;30.12;96748.34;4978250;28;1269;-77
2023/10/28 00:31:03;;;;;;;;;;;;;;;20.94;30.15;96756.53;4962808;28;1203;-76
2023/10/28 00:33:29;;;;;;;;;;;;;;;20.65;30.45;96752.09;5009564;28;1899;-76
2023/10/28 00:35:54;;;;;;;;;;;;;;;21.02;29.83;96769.09;5017440;28;1097;-76
2023/10/28 00:38:22;;;;;;;;;;;;;;;20.80;30.14;96763.59;5034022;28;982;-76
2023/10/28 00:40:47;;;;;;;;;;;;;;;20.83;30.27;96767.50;5014009;28;1135;-76
2023/10/28 00:43:13;;;;;;;;;;;;;;;20.94;29.88;96776.31;5013962;28;1549;-77
2023/10/28 00:45:39;;;;;;;;;;;;;;;21.16;29.24;96774.13;5013764;28;1273;-76
2023/10/28 00:48:05;;;;;;;;;;;;;;;20.81;30.20;96782.88;5013852;28;1102;-77
2023/10/28 00:50:30;;;;;;;;;;;;;;;20.75;30.23;96779.13;5013965;28;995;-76
2023/10/28 00:52:56;;;;;;;;;;;;;;;20.88;30.23;96775.34;5013808;28;1991;-76
2023/10/28 00:55:24;;;;;;;;;;;;;;;20.93;29.87;96783.22;5014258;28;1201;-77
2023/10/28 00:57:50;;;;;;;;;;;;;;;20.84;30.13;96784.00;5016895;28;1121;-76
2023/10/28 01:00:15;;;;;;;;;;;;;;;20.95;29.97;96780.72;5018149;28;1234;-76
2023/10/28 01:02:42;;;;;;;;;;;;;;;21.04;29.63;96778.69;4985267;28;1159;-76
2023/10/28 01:05:14;;;;;;;;;;;;;;;20.96;30.17;96782.28;5001715;28;1057;-76
2023/10/28 01:07:45;;;;;;;;;;;;;;;20.89;30.31;96785.44;5017919;28;1119;-76
2023/10/28 01:10:11;;;;;;;;;;;;;;;20.83;30.26;96790.13;5017584;28;1222;-76
2023/10/28 01:12:40;;;;;;;;;;;;;;;20.92;29.98;96787.31;5017607;28;1993;-76
2023/10/28 01:15:06;;;;;;;;;;;;;;;21.01;29.77;96796.59;4985477;28;1049;-76
2023/10/28 01:17:32;;;;;;;;;;;;;;;20.94;29.95;96796.13;4985001;28;977;-76
2023/10/28 01:19:57;;;;;;;;;;;;;;;20.94;29.61;96801.78;4997782;28;1090;-77
2023/10/28 01:22:26;;;;;;;;;;;;;;;20.89;29.87;96816.53;4998114;28;1215;-76
2023/10/28 01:24:52;;;;;;;;;;;;;;;20.53;30.09;96806.72;4981606;28;980;-77
2023/10/28 01:27:17;;;;;;;;;;;;;;;20.81;29.86;96819.66;4997944;28;1146;-76
2023/10/28 01:29:43;;;;;;;;;;;;;;;20.96;29.44;96827.53;4997715;28;1111;-76
2023/10/28 01:32:08;;;;;;;;;;;;;;;20.79;29.52;96822.16;4995127;28;1914;-76
2023/10/28 01:34:43;;;;;;;;;;;;;;;20.67;29.67;96823.06;4981409;28;1096;-76
2023/10/28 01:37:09;;;;;;;;;;;;;;;20.76;29.59;96808.94;4981448;28;939;-77
2023/10/28 01:39:34;;;;;;;;;;;;;;;20.81;29.62;96816.81;4997610;28;1123;-77
2023/10/28 01:42:00;;;;;;;;;;;;;;;20.67;29.85;96817.41;4981223;28;1238;-77
2023/10/28 01:44:25;;;;;;;;;;;;;;;20.80;29.43;96814.47;4985070;28;1058;-76
2023/10/28 01:46:51;;;;;;;;;;;;;;;20.95;29.39;96817.47;4984528;28;1238;-76
2023/10/28 01:49:16;;;;;;;;;;;;;;;20.72;29.65;96813.19;5000520;28;1021;-77
2023/10/28 01:51:42;;;;;;;;;;;;;;;20.53;29.99;96812.38;5016348;28;1249;-76
2023/10/28 01:54:07;;;;;;;;;;;;;;;20.62;29.65;96809.53;5016952;28;1906;-76
2023/10/28 01:56:33;;;;;;;;;;;;;;;20.79;29.58;96810.84;5016906;28;966;-76
2023/10/28 01:58:58;;;;;;;;;;;;;;;20.45;29.90;96799.75;5000529;28;1050;-77
2023/10/28 02:01:25;;;;;;;;;;;;;;;20.87;29.13;96813.38;5000548;28;1452;-76
2023/10/28 02:03:51;;;;;;;;;;;;;;;20.66;29.68;96810.19;5000350;28;1195;-76
2023/10/28 02:06:17;;;;;;;;;;;;;;;20.80;29.43;96817.28;5016415;28;949;-77
2023/10/28 02:08:42;;;;;;;;;;;;;;;20.60;29.56;96816.94;4999074;28;1174;-76
2023/10/28 02:11:08;;;;;;;;;;;;;;;20.59;29.78;96816.16;5000443;28;974;-76
2023/10/28 02:13:35;;;;;;;;;;;;;;;20.43;29.77;96831.28;5016498;28;1963;-77
2023/10/28 02:16:01;;;;;;;;;;;;;;;20.35;30.05;96829.22;5000704;28;1672;-76
2023/10/28 02:18:26;;;;;;;;;;;;;;;20.65;29.47;96830.44;5016687;28;1005;-76
2023/10/28 02:20:54;;;;;;;;;;;;;;;20.57;29.45;96827.09;5016594;28;998;-77
2023/10/28 02:23:19;;;;;;;;;;;;;;;20.55;29.63;96821.16;5016260;28;1122;-77
2023/10/28 02:25:45;;;;;;;;;;;;;;;20.76;29.46;96825.91;5031267;28;1213;-76
2023/10/28 02:28:11;;;;;;;;;;;;;;;20.80;29.38;96815.25;5040416;28;1233;-76
2023/10/28 02:30:40;;;;;;;;;;;;;;;20.69;29.49;96825.44;5023985;28;1712;-76
2023/10/28 02:33:09;;;;;;;;;;;;;;;20.57;30.03;96815.81;5040589;28;1964;-76
2023/10/28 02:35:34;;;;;;;;;;;;;;;20.74;29.64;96816.34;5040449;28;1393;-76
2023/10/28 02:38:01;;;;;;;;;;;;;;;20.69;29.92;96820.56;5058129;28;874;-77
2023/10/28 02:40:26;;;;;;;;;;;;;;;20.69;30.09;96814.91;5056611;28;939;-77
2023/10/28 02:42:52;;;;;;;;;;;;;;;20.84;29.62;96819.97;5058134;28;888;-76
2023/10/28 02:45:17;;;;;;;;;;;;;;;20.95;29.66;96826.75;5056873;28;1020;-76
2023/10/28 02:47:43;;;;;;;;;;;;;;;20.99;29.45;96826.59;5056912;28;1094;-76
2023/10/28 02:50:12;;;;;;;;;;;;;;;20.86;29.92;96823.13;5056402;28;1006;-76
2023/10/28 02:52:37;;;;;;;;;;;;;;;20.86;29.46;96818.25;5056356;28;1906;-76
2023/10/28 02:55:05;;;;;;;;;;;;;;;20.55;30.08;96836.06;5039777;28;935;-76
2023/10/28 02:57:32;;;;;;;;;;;;;;;20.72;29.74;96828.09;5040268;28;1196;-76
2023/10/28 02:59:57;;;;;;;;;;;;;;;20.66;29.88;96827.16;5035005;28;1185;-77
2023/10/28 03:02:23;;;;;;;;;;;;;;;20.65;30.11;96848.19;5035278;28;1091;-76
2023/10/28 03:04:48;;;;;;;;;;;;;;;20.72;29.82;96847.88;5035274;28;1070;-77
2023/10/28 03:07:14;;;;;;;;;;;;;;;20.84;29.60;96842.59;5035027;28;1059;-77
2023/10/28 03:09:40;;;;;;;;;;;;;;;20.70;29.70;96850.41;5018636;28;1402;-76
2023/10/28 03:12:06;;;;;;;;;;;;;;;20.92;29.33;96858.00;5018312;28;1203;-76
2023/10/28 03:14:31;;;;;;;;;;;;;;;20.79;29.46;96869.44;5034739;28;1977;-76
2023/10/28 03:16:57;;;;;;;;;;;;;;;20.51;29.91;96854.41;5035181;28;947;-76
2023/10/28 03:19:22;;;;;;;;;;;;;;;20.70;29.93;96860.94;5018317;28;1154;-76
2023/10/28 03:21:48;;;;;;;;;;;;;;;20.64;29.67;96846.63;5035026;28;1198;-76
2023/10/28 03:24:14;;;;;;;;;;;;;;;20.53;30.13;96854.75;5034917;28;1158;-76
2023/10/28 03:26:39;;;;;;;;;;;;;;;20.57;30.23;96858.19;5034898;28;953;-77
2023/10/28 03:29:06;;;;;;;;;;;;;;;20.81;29.83;96861.25;5034853;28;1669;-76
2023/10/28 03:31:31;;;;;;;;;;;;;;;20.53;30.49;96860.41;5050872;28;929;-76
2023/10/28 03:33:57;;;;;;;;;;;;;;;20.65;30.19;96859.50;5038821;28;1965;-76
2023/10/28 03:36:23;;;;;;;;;;;;;;;20.83;29.91;96863.63;5038813;28;1323;-77
2023/10/28 03:38:49;;;;;;;;;;;;;;;20.92;29.80;96855.16;5055851;28;1113;-77
2023/10/28 03:41:14;;;;;;;;;;;;;;;20.65;30.29;96864.38;5036744;28;1272;-77
2023/10/28 03:43:41;;;;;;;;;;;;;;;20.76;30.49;96871.16;5020417;28;1190;-77
2023/10/28 03:46:06;;;;;;;;;;;;;;;20.59;30.76;96867.00;5031910;28;1221;-76
2023/10/28 03:48:33;;;;;;;;;;;;;;;20.65;30.67;96876.44;5037604;28;1249;-77
2023/10/28 03:51:01;;;;;;;;;;;;;;;20.65;30.74;96876.44;5005280;28;1373;-77
2023/10/28 03:53:27;;;;;;;;;;;;;;;20.89;30.34;96879.53;5037684;28;1906;-77
2023/10/28 03:55:52;;;;;;;;;;;;;;;20.66;30.32;96883.66;5038400;28;1025;-76
2023/10/28 03:58:18;;;;;;;;;;;;;;;21.02;30.17;96890.69;5037768;28;1013;-77
2023/10/28 04:00:43;;;;;;;;;;;;;;;20.66;30.65;96894.19;5037773;28;1127;-77
2023/10/28 04:03:09;;;;;;;;;;;;;;;20.66;30.87;96902.66;5037138;28;1198;-77
2023/10/28 04:05:34;;;;;;;;;;;;;;;20.73;30.65;96908.84;5054046;28;1020;-76
2023/10/28 04:08:00;;;;;;;;;;;;;;;20.55;30.76;96911.59;5037364;28;981;-77
2023/10/28 04:10:25;;;;;;;;;;;;;;;20.65;30.34;96913.19;5053780;28;964;-76
2023/10/28 04:12:51;;;;;;;;;;;;;;;20.65;30.47;96913.19;5053779;28;1981;-76
2023/10/28 04:15:18;;;;;;;;;;;;;;;20.68;30.35;96917.94;5021062;28;977;-76
2023/10/28 04:17:44;;;;;;;;;;;;;;;20.55;30.74;96922.88;5037434;28;883;-77
2023/10/28 04:20:10;;;;;;;;;;;;;;;20.72;30.66;96926.25;5055099;28;982;-76
2023/10/28 04:22:36;;;;;;;;;;;;;;;20.62;30.90;96930.28;5022094;28;1238;-76
2023/10/28 04:25:01;;;;;;;;;;;;;;;20.59;30.64;96931.22;5054710;28;994;-77
2023/10/28 04:27:27;;;;;;;;;;;;;;;20.78;30.41;96942.16;5054769;28;1102;-77
2023/10/28 04:29:52;;;;;;;;;;;;;;;20.79;30.54;96948.59;5053251;28;986;-77
2023/10/28 04:32:20;;;;;;;;;;;;;;;20.66;30.66;96951.50;5041548;28;1967;-77
2023/10/28 04:34:45;;;;;;;;;;;;;;;20.69;30.71;96939.28;5043703;28;1173;-77
2023/10/28 04:37:12;;;;;;;;;;;;;;;20.68;30.65;96949.03;5060429;28;786;-76
2023/10/28 04:39:40;;;;;;;;;;;;;;;20.76;30.54;96950.28;5020260;28;1099;-77
2023/10/28 04:42:07;;;;;;;;;;;;;;;20.57;30.63;96957.09;5004334;28;1329;-77
2023/10/28 04:44:33;;;;;;;;;;;;;;;20.57;30.58;96954.28;5004093;28;1285;-76
2023/10/28 04:46:58;;;;;;;;;;;;;;;20.66;30.74;96957.16;5020022;28;944;-75
2023/10/28 04:49:24;;;;;;;;;;;;;;;20.70;30.31;96957.81;5020524;28;1027;-76
2023/10/28 04:51:49;;;;;;;;;;;;;;;20.78;30.18;96959.13;5003857;28;844;-76
2023/10/28 04:54:15;;;;;;;;;;;;;;;20.79;30.10;96960.69;5004169;28;1934;-75
2023/10/28 04:56:40;;;;;;;;;;;;;;;20.49;30.58;96947.34;5004108;28;1016;-76
2023/10/28 04:59:07;;;;;;;;;;;;;;;20.34;30.97;96966.06;5020524;28;988;-76
2023/10/28 05:01:32;;;;;;;;;;;;;;;20.86;30.28;96973.75;5019427;28;979;-76
2023/10/28 05:03:58;;;;;;;;;;;;;;;21.49;30.08;96965.94;5039955;28;981;-76
2023/10/28 05:06:23;;;;;;;;;;;;;;;21.42;30.68;96977.56;5020270;28;1234;-77
2023/10/28 05:08:49;;;;;;;;;;;;;;;21.56;30.79;96974.16;5003670;28;971;-77
2023/10/28 05:11:16;;;;;;;;;;;;;;;20.88;31.73;96976.09;5004237;28;1124;-77
2023/10/28 05:13:42;;;;;;;;;;;;;;;21.02;30.88;96984.81;5020233;28;1985;-77
2023/10/28 05:16:09;;;;;;;;;;;;;;;20.92;30.91;96997.31;5006665;28;1350;-77
2023/10/28 05:18:35;;;;;;;;;;;;;;;21.10;30.38;96993.03;5040270;28;1183;-77
2023/10/28 05:21:01;;;;;;;;;;;;;;;21.04;30.31;97001.31;5040649;28;1149;-77
2023/10/28 05:23:26;;;;;;;;;;;;;;;20.94;30.55;96999.72;5040267;28;1133;-77
2023/10/28 05:25:53;;;;;;;;;;;;;;;20.97;30.66;97004.41;5040398;28;1129;-77
2023/10/28 05:28:19;;;;;;;;;;;;;;;20.69;30.83;97012.78;5040215;28;1209;-77
2023/10/28 05:30:45;;;;;;;;;;;;;;;20.58;31.10;97011.63;5040455;28;924;-77
2023/10/28 05:33:11;;;;;;;;;;;;;;;20.61;31.08;97019.94;5040098;28;1910;-77
2023/10/28 05:35:37;;;;;;;;;;;;;;;20.86;30.71;97018.97;5040168;28;1278;-77
2023/10/28 05:38:02;;;;;;;;;;;;;;;20.73;30.85;97030.41;5068827;28;959;-77
2023/10/28 05:40:28;;;;;;;;;;;;;;;20.62;31.09;97035.66;5061111;28;951;-77
2023/10/28 05:42:54;;;;;;;;;;;;;;;20.59;31.16;97030.94;5059764;28;911;-77
2023/10/28 05:45:20;;;;;;;;;;;;;;;20.68;30.76;97033.81;5041188;28;1126;-78
2023/10/28 05:47:46;;;;;;;;;;;;;;;20.83;30.60;97028.41;5058731;28;891;-77
2023/10/28 05:50:12;;;;;;;;;;;;;;;20.90;30.27;97033.78;5058018;28;920;-78
2023/10/28 05:52:40;;;;;;;;;;;;;;;20.73;30.32;97053.00;5058459;28;1902;-77
2023/10/28 05:55:12;;;;;;;;;;;;;;;20.79;30.26;97058.84;5058215;28;925;-77
2023/10/28 05:57:40;;;;;;;;;;;;;;;20.75;30.49;97073.13;5039823;28;1133;-77
2023/10/28 06:00:10;;;;;;;;;;;;;;;20.86;30.50;97060.63;5030065;28;1081;-77
2023/10/28 06:02:36;;;;;;;;;;;;;;;20.72;30.67;97068.38;5056598;28;1215;-77
2023/10/28 06:05:03;;;;;;;;;;;;;;;21.04;29.98;97077.69;5016608;28;1097;-78
2023/10/28 06:07:29;;;;;;;;;;;;;;;20.72;30.37;97070.41;5016594;28;1014;-77
2023/10/28 06:09:55;;;;;;;;;;;;;;;20.74;30.65;97088.50;5016940;28;976;-77
2023/10/28 06:12:20;;;;;;;;;;;;;;;21.04;30.24;97080.53;5016395;28;1907;-78
2023/10/28 06:14:46;;;;;;;;;;;;;;;20.83;30.41;97078.50;5016425;28;950;-77
2023/10/28 06:17:13;;;;;;;;;;;;;;;20.72;30.76;97082.50;5016409;28;977;-77
2023/10/28 06:19:40;;;;;;;;;;;;;;;20.91;30.27;97085.47;5016712;28;817;-77
2023/10/28 06:22:06;;;;;;;;;;;;;;;20.75;30.61;97083.63;5016317;28;1019;-77
2023/10/28 06:24:32;;;;;;;;;;;;;;;20.79;30.58;97090.75;5016609;28;1020;-77
2023/10/28 06:26:59;;;;;;;;;;;;;;;20.86;30.63;97105.84;5012931;28;1127;-77
2023/10/28 06:29:24;;;;;;;;;;;;;;;20.68;31.01;97112.19;4980384;28;918;-77
2023/10/28 06:31:50;;;;;;;;;;;;;;;20.78;30.72;97111.00;4977018;28;891;-78
2023/10/28 06:34:16;;;;;;;;;;;;;;;20.88;30.61;97120.31;4965020;28;1906;-77
2023/10/28 06:36:41;;;;;;;;;;;;;;;20.85;30.53;97126.91;4996678;28;1055;-77
2023/10/28 06:39:10;;;;;;;;;;;;;;;20.90;30.28;97129.91;4983418;28;1214;-77
2023/10/28 06:41:35;;;;;;;;;;;;;;;20.72;30.36;97130.56;4996322;28;939;-76
2023/10/28 06:44:05;;;;;;;;;;;;;;;21.01;30.04;97129.50;4979943;28;1199;-77
2023/10/28 06:46:33;;;;;;;;;;;;;;;20.82;30.05;97134.25;4996432;28;969;-77
2023/10/28 06:48:59;;;;;;;;;;;;;;;20.87;30.09;97130.03;4996545;28;1146;-77
2023/10/28 06:51:25;;;;;;;;;;;;;;;20.77;29.95;97127.16;4996309;28;982;-77
2023/10/28 06:53:50;;;;;;;;;;;;;;;20.94;29.78;97141.88;4996297;28;1914;-77
2023/10/28 06:56:16;;;;;;;;;;;;;;;21.05;29.59;97147.13;4979729;28;1290;-77
2023/10/28 06:58:41;;;;;;;;;;;;;;;20.96;29.45;97147.84;5012072;28;964;-77
2023/10/28 07:01:09;;;;;;;;;;;;;;;20.84;29.95;97147.94;4999238;28;1041;-77
2023/10/28 07:03:38;;;;;;;;;;;;;;;20.71;29.90;97151.59;5015761;28;1192;-77
2023/10/28 07:06:04;;;;;;;;;;;;;;;20.89;29.83;97155.84;5015740;28;900;-77
2023/10/28 07:08:29;;;;;;;;;;;;;;;20.92;29.71;97161.34;4999202;28;1012;-77
2023/10/28 07:10:55;;;;;;;;;;;;;;;20.96;29.45;97162.00;4999297;28;969;-77
2023/10/28 07:13:21;;;;;;;;;;;;;;;20.87;29.53;97158.31;5048856;28;1910;-77
2023/10/28 07:15:47;;;;;;;;;;;;;;;20.77;29.88;97149.75;5055028;28;877;-77
2023/10/28 07:18:13;;;;;;;;;;;;;;;20.84;29.77;97154.38;5038404;28;944;-77
2023/10/28 07:20:40;;;;;;;;;;;;;;;20.64;29.97;97157.53;5022416;28;1012;-77
2023/10/28 07:23:05;;;;;;;;;;;;;;;20.99;29.56;97151.81;5038394;28;937;-77
2023/10/28 07:25:31;;;;;;;;;;;;;;;20.65;30.02;97150.63;5055004;28;976;-77
2023/10/28 07:27:56;;;;;;;;;;;;;;;20.69;29.84;97154.13;5054861;28;998;-77
2023/10/28 07:30:22;;;;;;;;;;;;;;;20.65;30.16;97155.50;5054717;28;980;-77
2023/10/28 07:32:47;;;;;;;;;;;;;;;20.79;29.49;97158.59;5054886;28;1910;-77
2023/10/28 07:35:13;;;;;;;;;;;;;;;20.81;29.52;97155.28;5055817;28;965;-78
2023/10/28 07:37:38;;;;;;;;;;;;;;;20.93;29.47;97156.47;5054896;28;993;-77
2023/10/28 07:40:04;;;;;;;;;;;;;;;20.79;29.78;97164.25;5055504;28;933;-77
2023/10/28 07:42:30;;;;;;;;;;;;;;;20.94;29.43;97164.50;5039258;28;911;-77
2023/10/28 07:44:56;;;;;;;;;;;;;;;20.71;30.08;97162.91;5039155;28;1106;-77
2023/10/28 07:47:21;;;;;;;;;;;;;;;20.75;29.87;97166.41;5056853;28;940;-77
2023/10/28 07:49:47;;;;;;;;;;;;;;;20.92;29.43;97171.88;5055897;28;739;-77
2023/10/28 07:52:12;;;;;;;;;;;;;;;20.74;29.93;97173.31;5056631;28;852;-77
2023/10/28 07:54:38;;;;;;;;;;;;;;;20.69;30.25;97173.91;5056219;28;1887;-77
2023/10/28 07:57:04;;;;;;;;;;;;;;;20.68;29.87;97163.84;5057088;28;892;-77
2023/10/28 07:59:29;;;;;;;;;;;;;;;20.80;29.82;97182.78;5056466;28;893;-77
2023/10/28 08:01:55;;;;;;;;;;;;;;;20.95;29.65;97182.25;5056580;28;798;-78
2023/10/28 08:04:21;;;;;;;;;;;;;;;21.14;29.44;97178.31;5056471;28;847;-77
2023/10/28 08:06:46;;;;;;;;;;;;;;;20.88;30.02;97176.84;5053901;28;939;-78
2023/10/28 08:09:12;;;;;;;;;;;;;;;21.04;29.54;97188.00;5056311;28;883;-78
2023/10/28 08:11:38;;;;;;;;;;;;;;;21.01;29.71;97180.41;5056505;28;793;-78
2023/10/28 08:14:03;;;;;;;;;;;;;;;21.07;29.49;97185.00;5054992;28;1909;-78
2023/10/28 08:16:29;;;;;;;;;;;;;;;20.96;29.86;97189.50;5056268;28;882;-77
2023/10/28 08:18:55;;;;;;;;;;;;;;;20.88;30.34;97177.66;5017458;28;854;-77
2023/10/28 08:21:20;;;;;;;;;;;;;;;21.07;29.71;97184.22;5016984;28;998;-78
2023/10/28 08:23:47;;;;;;;;;;;;;;;20.77;30.29;97183.69;5016914;28;769;-78
2023/10/28 08:26:12;;;;;;;;;;;;;;;21.23;29.52;97186.84;5017349;28;1119;-78
2023/10/28 08:28:38;;;;;;;;;;;;;;;20.64;30.58;97185.78;5033585;28;868;-78
2023/10/28 08:31:07;;;;;;;;;;;;;;;20.80;30.45;97194.09;5033411;28;727;-78
2023/10/28 08:33:36;;;;;;;;;;;;;;;20.65;30.57;97193.03;5017262;28;1898;-78
2023/10/28 08:36:02;;;;;;;;;;;;;;;20.79;30.39;97191.72;4977701;28;886;-77
2023/10/28 08:38:28;;;;;;;;;;;;;;;21.10;29.84;97194.63;4978370;28;1023;-77
2023/10/28 08:40:54;;;;;;;;;;;;;;;21.04;29.74;97207.78;4994921;28;919;-78
2023/10/28 08:43:19;;;;;;;;;;;;;;;21.26;29.26;97197.25;4994354;28;982;-78
2023/10/28 08:45:45;;;;;;;;;;;;;;;21.10;29.80;97210.81;4978231;28;1199;-78
2023/10/28 08:48:15;;;;;;;;;;;;;;;20.94;30.13;97208.97;4962189;28;919;-77
2023/10/28 08:50:40;;;;;;;;;;;;;;;20.92;30.10;97205.78;5010881;28;1145;-77
2023/10/28 08:53:06;;;;;;;;;;;;;;;20.99;29.68;97208.38;5017206;28;1967;-77
2023/10/28 08:55:33;;;;;;;;;;;;;;;21.08;29.59;97214.09;5033696;28;1007;-77
2023/10/28 08:57:58;;;;;;;;;;;;;;;21.06;29.88;97216.59;5033406;28;1414;-77
2023/10/28 09:00:25;;;;;;;;;;;;;;;20.99;30.04;97208.38;5017626;28;982;-76
2023/10/28 09:02:51;;;;;;;;;;;;;;;20.84;30.28;97207.31;5033747;28;925;-76
2023/10/28 09:05:16;;;;;;;;;;;;;;;20.76;30.09;97215.25;5033922;28;925;-76
2023/10/28 09:07:43;;;;;;;;;;;;;;;20.74;30.32;97212.91;5050460;28;936;-76
2023/10/28 09:10:12;;;;;;;;;;;;;;;20.96;29.81;97226.25;5037412;28;948;-76
2023/10/28 09:12:38;;;;;;;;;;;;;;;21.00;29.89;97224.88;5054331;28;1898;-76
2023/10/28 09:15:04;;;;;;;;;;;;;;;20.90;29.82;97226.06;5055959;28;898;-77
2023/10/28 09:17:29;;;;;;;;;;;;;;;21.11;29.72;97218.03;5056470;28;991;-77
2023/10/28 09:19:56;;;;;;;;;;;;;;;21.21;29.29;97212.00;5059696;28;925;-76
2023/10/28 09:22:22;;;;;;;;;;;;;;;20.97;29.66;97225.78;5060870;28;970;-77
2023/10/28 09:24:49;;;;;;;;;;;;;;;20.99;29.54;97222.53;5060310;28;994;-76
2023/10/28 09:27:15;;;;;;;;;;;;;;;20.84;30.13;97229.94;5037031;28;905;-76
2023/10/28 09:29:41;;;;;;;;;;;;;;;20.87;29.89;97231.84;5004470;28;918;-76
2023/10/28 09:32:08;;;;;;;;;;;;;;;21.10;29.74;97216.47;5000942;28;925;-76
2023/10/28 09:34:39;;;;;;;;;;;;;;;21.05;29.65;97209.38;4984972;28;1907;-76
2023/10/28 09:37:08;;;;;;;;;;;;;;;20.97;29.59;97202.38;5000863;28;921;-77
2023/10/28 09:39:34;;;;;;;;;;;;;;;20.83;30.02;97208.53;4981409;28;1027;-76
2023/10/28 09:42:00;;;;;;;;;;;;;;;20.68;30.03;97220.38;4981280;28;894;-76
2023/10/28 09:44:25;;;;;;;;;;;;;;;21.08;29.52;97214.88;4997073;28;1148;-76
2023/10/28 09:46:51;;;;;;;;;;;;;;;20.90;29.75;97208.31;4996938;28;968;-76
2023/10/28 09:49:17;;;;;;;;;;;;;;;20.86;29.82;97207.63;4980873;28;875;-76
2023/10/28 09:51:43;;;;;;;;;;;;;;;20.60;30.33;97207.72;4980543;28;798;-76
2023/10/28 09:54:11;;;;;;;;;;;;;;;21.06;29.42;97210.94;4980463;28;1987;-77
2023/10/28 09:56:37;;;;;;;;;;;;;;;21.09;29.30;97204.38;4996827;28;793;-77
2023/10/28 09:59:07;;;;;;;;;;;;;;;21.09;29.68;97198.72;4980577;28;1077;-78
2023/10/28 10:01:48;;;;;;;;;;;;;;;20.90;29.80;97202.66;4996354;28;850;-78
2023/10/28 10:04:31;;;;;;;;;;;;;;;20.73;30.29;97194.34;5005963;28;890;-77
2023/10/28 10:06:57;;;;;;;;;;;;;;;20.78;29.94;97201.47;5035639;28;790;-78
2023/10/28 10:09:22;;;;;;;;;;;;;;;20.52;30.55;97195.91;5019876;28;873;-77
2023/10/28 10:11:49;;;;;;;;;;;;;;;20.91;29.89;97205.00;5056879;28;794;-77
2023/10/28 10:14:14;;;;;;;;;;;;;;;20.94;29.72;97195.63;5056759;28;1996;-77
2023/10/28 10:16:46;;;;;;;;;;;;;;;20.94;29.79;97194.84;5057288;28;1369;-77
2023/10/28 10:19:15;;;;;;;;;;;;;;;21.00;29.84;97190.16;5057610;28;1199;-77
2023/10/28 10:21:47;;;;;;;;;;;;;;;20.71;30.07;97191.19;5056925;28;759;-77
2023/10/28 10:24:13;;;;;;;;;;;;;;;21.06;29.61;97200.41;5057314;28;846;-77
2023/10/28 10:26:38;;;;;;;;;;;;;;;20.68;30.38;97202.63;5057851;28;763;-77
2023/10/28 10:29:04;;;;;;;;;;;;;;;20.93;29.79;97198.88;5056625;28;770;-77
2023/10/28 10:31:31;;;;;;;;;;;;;;;21.12;29.62;97206.25;5056600;28;767;-77
2023/10/28 10:34:01;;;;;;;;;;;;;;;20.90;29.96;97213.97;5039987;28;1907;-78
2023/10/28 10:36:28;;;;;;;;;;;;;;;21.08;29.54;97216.91;5002526;28;1088;-77
2023/10/28 10:38:54;;;;;;;;;;;;;;;21.06;29.60;97214.56;5018527;28;801;-78
2023/10/28 10:41:27;;;;;;;;;;;;;;;21.17;29.48;97219.81;5035900;28;900;-78
2023/10/28 10:43:52;;;;;;;;;;;;;;;21.02;29.92;97211.06;5035777;28;902;-77
2023/10/28 10:46:18;;;;;;;;;;;;;;;20.93;29.65;97213.03;5018772;28;1258;-78
2023/10/28 10:48:44;;;;;;;;;;;;;;;20.73;30.13;97222.63;4976223;28;966;-77
2023/10/28 10:51:10;;;;;;;;;;;;;;;20.93;30.19;97202.50;4960499;28;1504;-77
2023/10/28 10:53:42;;;;;;;;;;;;;;;20.95;30.20;97216.19;4956966;29;1970;-77
2023/10/28 10:56:17;;;;;;;;;;;;;;;20.94;30.08;97214.63;4957045;29;1065;-78
2023/10/28 10:58:43;;;;;;;;;;;;;;;20.70;30.44;97220.69;4957361;29;1094;-77
2023/10/28 11:01:08;;;;;;;;;;;;;;;20.99;29.98;97211.22;4938063;29;1178;-77
2023/10/28 11:03:34;;;;;;;;;;;;;;;20.94;29.90;97214.63;4922308;29;1221;-77
2023/10/28 11:06:00;;;;;;;;;;;;;;;20.93;30.09;97207.38;4922580;29;998;-78
2023/10/28 11:08:26;;;;;;;;;;;;;;;20.94;30.17;97204.09;4956879;28;959;-77
2023/10/28 11:10:52;;;;;;;;;;;;;;;21.00;30.15;97207.13;4976326;28;957;-77
2023/10/28 11:13:17;;;;;;;;;;;;;;;21.33;29.51;97213.97;4960588;28;2002;-77
2023/10/28 11:15:43;;;;;;;;;;;;;;;21.38;29.47;97208.97;4960628;28;1259;-78
2023/10/28 11:18:09;;;;;;;;;;;;;;;21.19;29.75;97213.69;4960487;28;1456;-78
2023/10/28 11:20:34;;;;;;;;;;;;;;;20.98;30.05;97216.06;5009541;28;951;-77
2023/10/28 11:23:00;;;;;;;;;;;;;;;20.96;30.20;97217.78;5015789;28;904;-77
2023/10/28 11:25:32;;;;;;;;;;;;;;;20.95;30.52;97221.84;5015232;28;976;-77
2023/10/28 11:27:57;;;;;;;;;;;;;;;20.80;30.86;97216.72;5015220;28;995;-78
2023/10/28 11:30:24;;;;;;;;;;;;;;;21.14;30.40;97217.91;4998950;28;1005;-78
2023/10/28 11:32:52;;;;;;;;;;;;;;;21.01;30.36;97231.31;5030796;28;1983;-77
2023/10/28 11:35:18;;;;;;;;;;;;;;;20.96;30.29;97229.88;5039820;28;894;-78
2023/10/28 11:37:43;;;;;;;;;;;;;;;21.11;30.22;97240.69;5055454;28;920;-77
2023/10/28 11:40:10;;;;;;;;;;;;;;;21.18;30.03;97241.19;5055961;28;1652;-78
2023/10/28 11:42:37;;;;;;;;;;;;;;;21.07;30.23;97246.44;5054524;28;964;-78
2023/10/28 11:45:03;;;;;;;;;;;;;;;21.00;29.90;97243.91;5037698;28;1217;-78
2023/10/28 11:47:29;;;;;;;;;;;;;;;21.13;29.80;97238.16;5037888;28;985;-77
2023/10/28 11:49:57;;;;;;;;;;;;;;;21.30;29.72;97243.22;5054398;28;1020;-78
2023/10/28 11:52:23;;;;;;;;;;;;;;;21.21;29.83;97240.28;5038466;28;1184;-78
2023/10/28 11:54:48;;;;;;;;;;;;;;;21.09;29.71;97243.97;5054265;28;1914;-78
2023/10/28 11:57:14;;;;;;;;;;;;;;;21.23;29.67;97237.75;5038077;28;1269;-77
2023/10/28 11:59:40;;;;;;;;;;;;;;;21.15;29.91;97247.78;5054298;28;950;-78
2023/10/28 12:02:06;;;;;;;;;;;;;;;21.39;29.39;97238.84;5034354;28;918;-78
2023/10/28 12:04:32;;;;;;;;;;;;;;;21.08;29.76;97240.31;5017985;28;979;-78
2023/10/28 12:06:58;;;;;;;;;;;;;;;21.21;29.76;97253.63;5034145;28;913;-78
2023/10/28 12:09:23;;;;;;;;;;;;;;;21.06;29.97;97244.88;5018109;28;986;-78
2023/10/28 12:11:49;;;;;;;;;;;;;;;21.11;29.79;97241.47;5017733;28;983;-78
2023/10/28 12:14:15;;;;;;;;;;;;;;;21.00;30.11;97241.06;5017181;28;1985;-78
2023/10/28 12:16:41;;;;;;;;;;;;;;;21.13;30.01;97250.25;5054191;28;902;-77
2023/10/28 12:19:07;;;;;;;;;;;;;;;21.02;30.02;97255.53;5037452;28;1052;-78
2023/10/28 12:21:32;;;;;;;;;;;;;;;20.95;29.93;97252.97;5037783;28;882;-77
2023/10/28 12:23:58;;;;;;;;;;;;;;;20.87;30.16;97260.91;5037553;28;970;-78
2023/10/28 12:26:24;;;;;;;;;;;;;;;21.01;29.90;97259.59;5021156;28;890;-78
2023/10/28 12:28:52;;;;;;;;;;;;;;;20.74;30.56;97255.31;5020916;28;1000;-78
2023/10/28 12:31:22;;;;;;;;;;;;;;;20.67;30.58;97249.88;5053970;28;963;-78
2023/10/28 12:33:47;;;;;;;;;;;;;;;20.94;30.12;97254.22;5037413;28;1976;-78
2023/10/28 12:36:16;;;;;;;;;;;;;;;20.79;30.62;97245.44;5037728;28;897;-78
2023/10/28 12:38:41;;;;;;;;;;;;;;;21.18;30.05;97252.50;5038360;28;947;-78
2023/10/28 12:41:07;;;;;;;;;;;;;;;21.19;29.91;97254.09;5037335;28;931;-78
2023/10/28 12:43:32;;;;;;;;;;;;;;;21.05;30.04;97248.97;5055054;28;912;-78
2023/10/28 12:45:58;;;;;;;;;;;;;;;21.16;29.58;97243.69;5053953;28;1378;-78
2023/10/28 12:48:23;;;;;;;;;;;;;;;21.05;30.10;97248.97;5055991;28;941;-78
2023/10/28 12:50:49;;;;;;;;;;;;;;;21.15;29.83;97259.09;5055313;28;882;-78
2023/10/28 12:53:14;;;;;;;;;;;;;;;20.80;30.24;97255.50;5058035;28;2035;-78
2023/10/28 12:55:41;;;;;;;;;;;;;;;21.11;29.77;97258.44;5060348;28;896;-78
2023/10/28 12:58:07;;;;;;;;;;;;;;;21.05;29.74;97265.94;5060146;28;858;-78